createdAt,value
2023-06-30T00:00:26.934Z,14.73
2023-06-30T00:02:56.665Z,8.00
2023-06-30T00:05:26.580Z,7.40
2023-06-30T00:07:59.953Z,9.35
2023-06-30T00:10:27.737Z,11.88
2023-06-30T00:12:55.605Z,7.85
2023-06-30T00:15:23.307Z,9.43
2023-06-30T00:17:53.996Z,9.13
2023-06-30T00:20:22.381Z,7.70
2023-06-30T00:22:49.984Z,11.77
2023-06-30T00:25:17.585Z,9.73
2023-06-30T00:27:45.149Z,8.85
2023-06-30T00:30:12.949Z,12.05
2023-06-30T00:32:40.546Z,8.30
2023-06-30T00:35:08.646Z,8.50
2023-06-30T00:37:36.217Z,9.00
2023-06-30T00:40:04.218Z,9.35
2023-06-30T00:42:31.835Z,5.85
2023-06-30T00:45:01.345Z,9.63
2023-06-30T00:47:29.553Z,9.07
2023-06-30T00:49:57.262Z,12.20
2023-06-30T00:52:25.625Z,10.88
2023-06-30T00:54:53.213Z,9.15
2023-06-30T00:57:20.891Z,8.38
2023-06-30T00:59:48.502Z,8.25
2023-06-30T01:02:28.794Z,8.82
2023-06-30T01:05:06.842Z,10.60
2023-06-30T01:07:53.927Z,6.85
2023-06-30T01:10:27.045Z,10.57
2023-06-30T01:12:54.828Z,7.47
2023-06-30T01:15:23.313Z,7.90
2023-06-30T01:18:01.069Z,10.70
2023-06-30T01:20:34.039Z,9.23
2023-06-30T01:25:41.332Z,10.90
2023-06-30T01:28:10.662Z,9.38
2023-06-30T01:30:38.692Z,6.57
2023-06-30T01:33:07.301Z,12.68
2023-06-30T01:35:35.124Z,14.15
2023-06-30T01:38:03.516Z,12.55
2023-06-30T01:40:31.607Z,7.88
2023-06-30T01:42:59.359Z,8.55
2023-06-30T01:45:29.322Z,9.18
2023-06-30T01:47:58.296Z,9.02
2023-06-30T01:50:31.024Z,10.77
2023-06-30T01:52:59.416Z,8.82
2023-06-30T01:55:30.336Z,8.90
2023-06-30T01:57:58.020Z,12.60
2023-06-30T02:00:25.620Z,14.55
2023-06-30T02:02:53.335Z,9.25
2023-06-30T02:05:21.167Z,10.15
2023-06-30T02:07:48.807Z,9.13
2023-06-30T02:10:17.151Z,10.32
2023-06-30T02:12:45.392Z,10.32
2023-06-30T02:15:13.001Z,10.07
2023-06-30T02:17:41.641Z,7.55
2023-06-30T02:20:11.044Z,10.88
2023-06-30T02:22:39.926Z,7.72
2023-06-30T02:25:07.846Z,6.85
2023-06-30T02:27:35.451Z,11.88
2023-06-30T02:30:06.598Z,8.00
2023-06-30T02:32:39.229Z,8.40
2023-06-30T02:35:10.858Z,8.03
2023-06-30T02:37:38.827Z,9.57
2023-06-30T02:40:07.289Z,12.38
2023-06-30T02:42:35.128Z,7.03
2023-06-30T02:45:02.847Z,7.57
2023-06-30T02:47:32.137Z,11.85
2023-06-30T02:49:59.760Z,11.07
2023-06-30T02:52:28.572Z,13.98
2023-06-30T02:54:57.249Z,10.57
2023-06-30T02:57:24.884Z,7.40
2023-06-30T02:59:52.556Z,7.53
2023-06-30T03:02:20.558Z,10.98
2023-06-30T03:04:48.371Z,6.60
2023-06-30T03:07:17.939Z,9.95
2023-06-30T03:09:46.831Z,9.43
2023-06-30T03:12:14.751Z,8.80
2023-06-30T03:14:43.391Z,9.32
2023-06-30T03:17:12.531Z,8.18
2023-06-30T03:19:40.276Z,9.60
2023-06-30T03:22:07.965Z,9.13
2023-06-30T03:24:35.934Z,7.30
2023-06-30T03:27:05.466Z,6.63
2023-06-30T03:29:33.052Z,10.95
2023-06-30T03:32:00.881Z,7.95
2023-06-30T03:34:28.854Z,8.38
2023-06-30T03:36:58.631Z,13.93
2023-06-30T03:39:26.269Z,12.50
2023-06-30T03:41:53.832Z,11.00
2023-06-30T03:44:21.612Z,9.18
2023-06-30T03:46:49.266Z,7.47
2023-06-30T03:49:16.958Z,8.60
2023-06-30T03:51:44.610Z,8.15
2023-06-30T03:54:12.242Z,10.18
2023-06-30T03:56:39.984Z,9.38
2023-06-30T03:59:07.566Z,9.20
2023-06-30T04:01:36.686Z,8.00
2023-06-30T04:04:04.771Z,5.82
2023-06-30T04:06:34.587Z,8.65
2023-06-30T04:09:02.178Z,9.20
2023-06-30T04:11:30.029Z,8.13
2023-06-30T04:14:00.290Z,9.80
2023-06-30T04:16:28.237Z,6.93
2023-06-30T04:18:56.224Z,8.90
2023-06-30T04:21:24.080Z,9.70
2023-06-30T04:23:51.750Z,10.63
2023-06-30T04:26:19.406Z,6.47
2023-06-30T04:28:47.212Z,9.75
2023-06-30T04:31:14.928Z,13.15
2023-06-30T04:33:42.517Z,8.68
2023-06-30T04:36:10.209Z,8.38
2023-06-30T04:38:38.006Z,10.13
2023-06-30T04:41:05.682Z,8.07
2023-06-30T04:43:34.030Z,7.07
2023-06-30T04:46:01.826Z,12.95
2023-06-30T04:48:29.622Z,8.48
2023-06-30T04:50:57.285Z,10.13
2023-06-30T04:53:25.884Z,10.30
2023-06-30T04:55:53.478Z,9.02
2023-06-30T04:58:21.042Z,6.60
2023-06-30T05:00:48.710Z,8.98
2023-06-30T05:03:16.292Z,8.90
2023-06-30T05:05:44.307Z,11.48
2023-06-30T05:08:12.119Z,10.00
2023-06-30T05:10:39.877Z,11.50
2023-06-30T05:13:07.438Z,8.43
2023-06-30T05:15:35.165Z,9.02
2023-06-30T05:18:02.873Z,8.43
2023-06-30T05:20:33.290Z,8.27
2023-06-30T05:23:01.578Z,7.03
2023-06-30T05:25:29.264Z,9.02
2023-06-30T05:27:56.842Z,10.95
2023-06-30T05:30:24.438Z,9.05
2023-06-30T05:32:51.999Z,13.75
2023-06-30T05:35:19.606Z,12.40
2023-06-30T05:37:47.964Z,11.07
2023-06-30T05:40:15.590Z,11.13
2023-06-30T05:42:43.152Z,8.30
2023-06-30T05:45:11.189Z,10.32
2023-06-30T05:47:38.771Z,9.30
2023-06-30T05:50:06.863Z,9.38
2023-06-30T05:52:34.448Z,6.38
2023-06-30T05:55:02.421Z,9.38
2023-06-30T05:57:30.534Z,10.77
2023-06-30T05:59:58.164Z,7.85
2023-06-30T06:02:25.842Z,7.70
2023-06-30T06:04:53.736Z,14.30
2023-06-30T06:07:21.485Z,11.73
2023-06-30T06:09:49.076Z,7.60
2023-06-30T06:12:16.602Z,13.52
2023-06-30T06:14:44.419Z,11.27
2023-06-30T06:17:11.989Z,10.40
2023-06-30T06:19:39.699Z,11.00
2023-06-30T06:22:08.397Z,9.35
2023-06-30T06:24:36.236Z,8.65
2023-06-30T06:27:05.223Z,11.45
2023-06-30T06:29:32.935Z,9.05
2023-06-30T06:32:01.457Z,12.15
2023-06-30T06:34:29.676Z,11.55
2023-06-30T06:36:57.291Z,13.73
2023-06-30T06:39:26.043Z,9.20
2023-06-30T06:41:53.993Z,7.40
2023-06-30T06:44:22.908Z,10.57
2023-06-30T06:47:29.331Z,13.95
2023-06-30T06:49:57.003Z,9.93
2023-06-30T06:52:24.623Z,12.60
2023-06-30T06:54:52.899Z,9.85
2023-06-30T06:57:20.569Z,9.82
2023-06-30T06:59:48.148Z,11.93
2023-06-30T07:02:15.779Z,12.23
2023-06-30T07:04:44.531Z,9.48
2023-06-30T07:07:12.198Z,12.35
2023-06-30T07:09:39.975Z,13.50
2023-06-30T07:12:07.973Z,12.65
2023-06-30T07:14:37.150Z,10.65
2023-06-30T07:17:05.005Z,11.40
2023-06-30T07:19:32.678Z,11.15
2023-06-30T07:22:00.238Z,8.73
2023-06-30T07:24:32.397Z,7.97
2023-06-30T07:27:09.650Z,8.00
2023-06-30T07:29:37.212Z,11.57
2023-06-30T07:32:05.256Z,11.65
2023-06-30T07:34:37.285Z,13.13
2023-06-30T07:37:07.654Z,17.75
2023-06-30T07:39:35.940Z,11.82
2023-06-30T07:42:03.973Z,10.18
2023-06-30T07:44:32.559Z,9.20
2023-06-30T07:47:01.245Z,8.43
2023-06-30T07:49:29.057Z,7.85
2023-06-30T07:51:56.704Z,12.35
2023-06-30T07:54:24.304Z,10.55
2023-06-30T07:56:52.255Z,14.25
2023-06-30T07:59:19.952Z,11.52
2023-06-30T08:01:47.625Z,11.95
2023-06-30T08:04:15.391Z,11.25
2023-06-30T08:06:43.096Z,9.40
2023-06-30T08:09:10.652Z,13.32
2023-06-30T08:11:38.694Z,10.52
2023-06-30T08:14:07.631Z,14.48
2023-06-30T08:16:35.302Z,12.73
2023-06-30T08:19:03.149Z,12.93
2023-06-30T08:21:30.831Z,11.30
2023-06-30T08:23:58.528Z,11.90
2023-06-30T08:26:26.139Z,12.48
2023-06-30T08:28:54.587Z,9.55
2023-06-30T08:31:22.388Z,16.05
2023-06-30T08:33:49.969Z,17.08
2023-06-30T08:36:17.632Z,13.18
2023-06-30T08:38:45.332Z,12.73
2023-06-30T08:41:14.405Z,11.57
2023-06-30T08:43:43.025Z,12.30
2023-06-30T08:46:13.993Z,14.10
2023-06-30T08:48:42.085Z,9.38
2023-06-30T08:51:11.853Z,11.48
2023-06-30T08:53:39.479Z,13.60
2023-06-30T08:56:09.197Z,16.67
2023-06-30T08:58:38.376Z,13.20
2023-06-30T09:01:06.412Z,9.48
2023-06-30T09:03:35.575Z,10.35
2023-06-30T09:06:03.477Z,9.50
2023-06-30T09:08:51.435Z,10.25
2023-06-30T09:11:23.688Z,12.90
2023-06-30T09:13:53.015Z,9.25
2023-06-30T09:16:21.535Z,11.68
2023-06-30T09:18:49.633Z,11.65
2023-06-30T09:21:17.314Z,9.38
2023-06-30T09:23:44.993Z,10.27
2023-06-30T09:26:15.088Z,11.40
2023-06-30T09:28:46.111Z,9.02
2023-06-30T09:31:15.648Z,10.85
2023-06-30T09:33:45.682Z,11.75
2023-06-30T09:36:18.915Z,9.75
2023-06-30T09:38:47.082Z,8.38
2023-06-30T09:41:21.841Z,10.52
2023-06-30T09:43:58.316Z,9.40
2023-06-30T09:46:27.421Z,8.98
2023-06-30T09:48:56.421Z,9.20
2023-06-30T09:51:24.422Z,8.52
2023-06-30T09:53:55.864Z,8.52
2023-06-30T09:56:24.556Z,8.35
2023-06-30T09:58:58.230Z,9.38
2023-06-30T10:01:26.070Z,8.82
2023-06-30T10:03:56.895Z,6.90
2023-06-30T10:06:26.194Z,9.70
2023-06-30T10:08:56.908Z,10.13
2023-06-30T10:11:24.940Z,7.90
2023-06-30T10:13:54.698Z,8.73
2023-06-30T10:16:23.571Z,10.43
2023-06-30T10:18:52.478Z,8.32
2023-06-30T10:21:20.360Z,12.85
2023-06-30T10:23:50.529Z,9.48
2023-06-30T10:26:20.750Z,6.93
2023-06-30T10:28:49.055Z,9.65
2023-06-30T10:31:17.421Z,7.35
2023-06-30T10:33:45.353Z,10.13
2023-06-30T10:36:14.452Z,7.45
2023-06-30T10:38:44.486Z,6.72
2023-06-30T10:41:14.864Z,6.78
2023-06-30T10:44:03.993Z,10.10
2023-06-30T10:46:57.082Z,7.35
2023-06-30T10:49:39.852Z,8.27
2023-06-30T10:52:29.039Z,10.45
2023-06-30T10:55:07.015Z,8.57
2023-06-30T10:57:40.623Z,7.55
2023-06-30T11:00:13.086Z,11.07
2023-06-30T11:02:58.559Z,8.52
2023-06-30T11:05:31.083Z,8.35
2023-06-30T11:08:10.842Z,6.65
2023-06-30T11:10:46.648Z,10.38
2023-06-30T11:13:14.979Z,7.85
2023-06-30T11:15:45.989Z,10.32
2023-06-30T11:18:14.309Z,7.30
2023-06-30T11:21:08.659Z,7.28
2023-06-30T11:23:40.488Z,9.30
2023-06-30T11:26:16.403Z,8.52
2023-06-30T11:28:51.426Z,8.88
2023-06-30T11:31:19.515Z,7.43
2023-06-30T11:33:47.617Z,9.75
2023-06-30T11:36:19.187Z,9.80
2023-06-30T11:41:25.148Z,10.00
2023-06-30T11:43:57.239Z,6.95
2023-06-30T11:46:25.425Z,8.65
2023-06-30T11:48:53.043Z,11.70
2023-06-30T11:51:20.984Z,10.20
2023-06-30T11:53:49.186Z,9.93
2023-06-30T11:56:20.964Z,13.07
2023-06-30T11:58:50.020Z,7.97
2023-06-30T12:01:18.154Z,12.15
2023-06-30T12:03:45.870Z,11.02
2023-06-30T12:06:19.563Z,9.60
2023-06-30T12:08:47.275Z,8.65
2023-06-30T12:11:17.001Z,8.50
2023-06-30T12:13:45.389Z,9.30
2023-06-30T12:16:13.752Z,7.95
2023-06-30T12:18:46.005Z,8.30
2023-06-30T12:21:14.724Z,10.52
2023-06-30T12:23:44.997Z,9.40
2023-06-30T12:26:16.603Z,9.23
2023-06-30T12:31:12.140Z,8.18
2023-06-30T12:33:39.888Z,6.30
2023-06-30T12:36:07.845Z,6.85
2023-06-30T12:38:36.063Z,11.13
2023-06-30T12:41:04.323Z,9.23
2023-06-30T12:43:34.493Z,6.95
2023-06-30T12:46:02.526Z,6.82
2023-06-30T12:48:30.193Z,7.43
2023-06-30T12:50:59.066Z,8.15
2023-06-30T12:53:26.731Z,8.15
2023-06-30T12:55:54.733Z,10.80
2023-06-30T12:58:22.487Z,7.07
2023-06-30T13:00:50.956Z,7.50
2023-06-30T13:03:18.880Z,9.43
2023-06-30T13:05:47.349Z,7.63
2023-06-30T13:08:14.963Z,9.48
2023-06-30T13:10:42.487Z,7.75
2023-06-30T13:13:10.110Z,7.07
2023-06-30T13:15:37.710Z,9.27
2023-06-30T13:18:05.532Z,5.88
2023-06-30T13:20:33.131Z,6.45
2023-06-30T13:23:12.074Z,6.10
2023-06-30T13:25:45.527Z,6.07
2023-06-30T13:28:13.448Z,6.40
2023-06-30T13:30:41.097Z,5.60
2023-06-30T13:33:08.978Z,5.47
2023-06-30T13:35:38.737Z,6.15
2023-06-30T13:38:06.363Z,5.43
2023-06-30T13:40:34.003Z,5.20
2023-06-30T13:43:01.677Z,4.80
2023-06-30T13:45:29.709Z,5.32
2023-06-30T13:47:58.304Z,4.70
2023-06-30T13:50:26.213Z,5.28
2023-06-30T13:52:53.864Z,3.72
2023-06-30T13:55:22.022Z,2.47
2023-06-30T13:57:49.719Z,3.72
2023-06-30T14:00:17.640Z,5.88
2023-06-30T14:02:45.495Z,2.83
2023-06-30T14:05:13.671Z,3.85
2023-06-30T14:07:43.071Z,2.50
2023-06-30T14:10:11.012Z,4.45
2023-06-30T14:12:39.083Z,1.98
2023-06-30T14:15:07.439Z,2.08
2023-06-30T14:17:34.931Z,2.53
2023-06-30T14:20:04.465Z,2.88
2023-06-30T14:22:33.217Z,1.85
2023-06-30T14:25:00.992Z,2.05
2023-06-30T14:27:28.718Z,2.70
2023-06-30T14:29:56.483Z,3.10
2023-06-30T14:32:26.916Z,2.17
2023-06-30T14:34:54.506Z,1.23
2023-06-30T14:37:22.594Z,2.70
2023-06-30T14:39:50.209Z,2.10
2023-06-30T14:42:30.927Z,2.58
2023-06-30T14:45:00.334Z,1.95
2023-06-30T14:47:28.734Z,3.65
2023-06-30T14:49:58.465Z,7.85
2023-06-30T14:52:26.556Z,3.35
2023-06-30T14:54:54.331Z,2.97
2023-06-30T14:57:22.373Z,1.65
2023-06-30T14:59:50.441Z,5.32
2023-06-30T15:02:19.021Z,5.05
2023-06-30T15:04:47.267Z,1.85
2023-06-30T15:07:14.843Z,3.53
2023-06-30T15:09:43.080Z,3.67
2023-06-30T15:12:11.575Z,1.73
2023-06-30T15:14:39.208Z,1.35
2023-06-30T15:17:07.179Z,1.42
2023-06-30T15:19:35.429Z,3.47
2023-06-30T15:22:03.500Z,3.65
2023-06-30T15:24:31.081Z,4.97
2023-06-30T15:26:59.004Z,6.75
2023-06-30T15:29:26.772Z,10.35
2023-06-30T15:31:55.288Z,5.30
2023-06-30T15:34:23.298Z,4.22
2023-06-30T15:36:51.321Z,4.85
2023-06-30T15:39:19.440Z,3.78
2023-06-30T15:41:46.906Z,3.60
2023-06-30T15:44:14.569Z,1.70
2023-06-30T15:46:42.925Z,2.75
2023-06-30T15:49:11.224Z,1.88
2023-06-30T15:51:39.103Z,2.30
2023-06-30T15:54:07.765Z,1.83
2023-06-30T15:56:35.790Z,2.00
2023-06-30T15:59:03.718Z,1.60
2023-06-30T16:01:32.113Z,1.10
2023-06-30T16:03:59.764Z,8.73
2023-06-30T16:06:27.729Z,1.65
2023-06-30T16:08:56.073Z,1.38
2023-06-30T16:11:23.591Z,1.77
2023-06-30T16:13:51.192Z,0.60
2023-06-30T16:16:18.861Z,1.27
2023-06-30T16:18:47.313Z,1.27
2023-06-30T16:21:15.057Z,0.82
2023-06-30T16:23:43.200Z,2.22
2023-06-30T16:26:11.158Z,1.27
2023-06-30T16:28:38.719Z,0.75
2023-06-30T16:31:07.015Z,1.38
2023-06-30T16:33:35.281Z,1.73
2023-06-30T16:36:03.340Z,1.75
2023-06-30T16:38:31.345Z,3.33
2023-06-30T16:40:58.862Z,1.65
2023-06-30T16:43:26.442Z,2.90
2023-06-30T16:45:55.374Z,3.75
2023-06-30T16:48:22.991Z,3.47
2023-06-30T16:50:50.594Z,2.20
2023-06-30T16:53:19.072Z,2.65
2023-06-30T16:55:46.936Z,1.83
2023-06-30T16:58:15.175Z,1.90
2023-06-30T17:00:42.764Z,2.28
2023-06-30T17:03:10.515Z,2.28
2023-06-30T17:05:38.154Z,1.92
2023-06-30T17:08:06.118Z,4.40
2023-06-30T17:10:33.729Z,2.83
2023-06-30T17:13:04.239Z,5.18
2023-06-30T17:15:32.247Z,2.63
2023-06-30T17:18:00.452Z,1.65
2023-06-30T17:20:29.004Z,2.65
2023-06-30T17:22:56.707Z,2.00
2023-06-30T17:25:24.356Z,3.22
2023-06-30T17:27:52.353Z,2.22
2023-06-30T17:30:20.348Z,2.53
2023-06-30T17:32:47.896Z,3.70
2023-06-30T17:35:15.723Z,3.42
2023-06-30T17:37:43.797Z,2.78
2023-06-30T17:40:11.905Z,2.72
2023-06-30T17:42:39.517Z,3.95
2023-06-30T17:45:07.638Z,3.25
2023-06-30T17:47:35.203Z,2.53
2023-06-30T17:50:02.998Z,3.80
2023-06-30T17:52:31.324Z,2.80
2023-06-30T17:54:58.939Z,3.00
2023-06-30T17:57:26.469Z,3.00
2023-06-30T17:59:54.220Z,3.10
2023-06-30T18:02:21.884Z,2.75
2023-06-30T18:04:50.276Z,4.13
2023-06-30T18:07:17.967Z,3.28
2023-06-30T18:09:46.208Z,2.72
2023-06-30T18:12:14.724Z,3.25
2023-06-30T18:14:43.461Z,2.75
2023-06-30T18:17:11.583Z,2.28
2023-06-30T18:19:41.501Z,2.55
2023-06-30T18:22:09.219Z,2.95
2023-06-30T18:24:36.883Z,3.53
2023-06-30T18:27:04.904Z,3.97
2023-06-30T18:29:32.524Z,3.05
2023-06-30T18:32:01.159Z,3.60
2023-06-30T18:34:29.119Z,3.25
2023-06-30T18:36:56.657Z,3.88
2023-06-30T18:39:24.248Z,3.78
2023-06-30T18:41:51.789Z,3.50
2023-06-30T18:44:19.506Z,5.18
2023-06-30T18:46:48.320Z,3.50
2023-06-30T18:49:15.974Z,5.32
2023-06-30T18:51:44.106Z,3.10
2023-06-30T18:54:12.021Z,4.15
2023-06-30T18:56:39.656Z,3.55
2023-06-30T18:59:07.284Z,3.78
2023-06-30T19:01:35.026Z,3.35
2023-06-30T19:04:03.232Z,3.67
2023-06-30T19:06:30.988Z,4.55
2023-06-30T19:08:59.018Z,3.22
2023-06-30T19:11:26.598Z,3.85
2023-06-30T19:13:54.486Z,3.22
2023-06-30T19:16:22.403Z,3.35
2023-06-30T19:18:50.408Z,3.75
2023-06-30T19:21:18.182Z,3.35
2023-06-30T19:23:46.090Z,4.72
2023-06-30T19:26:16.457Z,4.00
2023-06-30T19:28:44.510Z,4.30
2023-06-30T19:31:12.263Z,4.45
2023-06-30T19:33:43.429Z,4.38
2023-06-30T19:36:11.801Z,4.40
2023-06-30T19:38:39.958Z,4.75
2023-06-30T19:41:08.054Z,3.13
2023-06-30T19:43:35.599Z,2.95
2023-06-30T19:46:03.997Z,2.92
2023-06-30T19:48:32.225Z,2.75
2023-06-30T19:51:00.745Z,5.47
2023-06-30T19:53:28.530Z,2.55
2023-06-30T19:55:56.883Z,2.22
2023-06-30T19:58:26.474Z,3.30
2023-06-30T20:00:54.613Z,2.53
2023-06-30T20:03:22.897Z,3.10
2023-06-30T20:05:51.090Z,5.10
2023-06-30T20:08:20.520Z,2.67
2023-06-30T20:10:49.912Z,2.42
2023-06-30T20:13:18.020Z,2.60
2023-06-30T20:15:46.660Z,2.42
2023-06-30T20:18:18.162Z,3.80
2023-06-30T20:20:48.336Z,2.47
2023-06-30T20:23:16.499Z,3.15
2023-06-30T20:25:44.930Z,3.47
2023-06-30T20:28:13.328Z,2.00
2023-06-30T20:30:41.388Z,2.08
2023-06-30T20:33:09.493Z,3.63
2023-06-30T20:35:38.256Z,2.80
2023-06-30T20:38:07.434Z,2.45
2023-06-30T20:40:36.437Z,2.78
2023-06-30T20:43:04.732Z,2.97
2023-06-30T20:45:34.047Z,3.05
2023-06-30T20:48:02.833Z,2.25
2023-06-30T20:50:31.256Z,1.85
2023-06-30T20:52:59.235Z,2.47
2023-06-30T20:55:27.063Z,3.67
2023-06-30T20:57:55.076Z,2.83
2023-06-30T21:00:22.738Z,2.95
2023-06-30T21:02:50.464Z,2.20
2023-06-30T21:05:18.286Z,1.83
2023-06-30T21:07:45.831Z,2.40
2023-06-30T21:10:13.590Z,4.30
2023-06-30T21:12:41.316Z,3.92
2023-06-30T21:15:09.665Z,2.47
2023-06-30T21:17:37.250Z,5.20
2023-06-30T21:20:05.508Z,1.92
2023-06-30T21:22:33.082Z,3.15
2023-06-30T21:25:00.681Z,4.13
2023-06-30T21:27:28.227Z,4.00
2023-06-30T21:29:55.831Z,4.38
2023-06-30T21:32:23.537Z,2.22
2023-06-30T21:34:51.127Z,2.80
2023-06-30T21:37:18.712Z,3.60
2023-06-30T21:39:46.298Z,2.65
2023-06-30T21:42:13.875Z,2.13
2023-06-30T21:44:43.517Z,4.28
2023-06-30T21:47:11.186Z,2.20
2023-06-30T21:49:38.877Z,5.90
2023-06-30T21:52:06.596Z,3.65
2023-06-30T21:54:47.106Z,3.05
2023-06-30T21:57:16.563Z,2.45
2023-06-30T21:59:44.950Z,3.33
2023-06-30T22:02:12.694Z,3.60
2023-06-30T22:04:40.467Z,3.22
2023-06-30T22:07:08.171Z,3.60
2023-06-30T22:09:35.857Z,4.65
2023-06-30T22:12:03.704Z,4.28
2023-06-30T22:14:31.261Z,5.43
2023-06-30T22:16:58.866Z,6.55
2023-06-30T22:19:26.580Z,4.43
2023-06-30T22:21:54.832Z,4.70
2023-06-30T22:24:22.356Z,5.63
2023-06-30T22:26:49.960Z,7.30
2023-06-30T22:29:17.522Z,7.07
2023-06-30T22:31:47.059Z,8.82
2023-06-30T22:34:14.757Z,7.25
2023-06-30T22:36:42.418Z,5.97
2023-06-30T22:39:10.871Z,5.43
2023-06-30T22:41:38.456Z,8.30
2023-06-30T22:44:06.005Z,5.07
2023-06-30T22:46:33.667Z,9.25
2023-06-30T22:49:06.563Z,9.27
2023-06-30T22:51:34.323Z,7.88
2023-06-30T22:54:01.885Z,7.18
2023-06-30T22:56:29.472Z,7.10
2023-06-30T22:58:57.013Z,7.00
2023-06-30T23:01:24.951Z,9.40
2023-06-30T23:03:52.659Z,12.93
2023-06-30T23:06:20.438Z,6.97
2023-06-30T23:08:47.969Z,7.63
2023-06-30T23:11:15.551Z,7.80
2023-06-30T23:13:43.109Z,6.97
2023-06-30T23:16:10.797Z,9.07
2023-06-30T23:18:38.967Z,9.32
2023-06-30T23:21:10.694Z,8.85
2023-06-30T23:23:42.240Z,11.68
2023-06-30T23:28:44.022Z,7.63
2023-06-30T23:31:13.062Z,7.30
2023-06-30T23:33:44.087Z,4.05
2023-06-30T23:36:12.085Z,3.85
2023-06-30T23:38:39.803Z,3.83
2023-06-30T23:41:07.446Z,3.15
2023-06-30T23:43:34.964Z,4.13
2023-06-30T23:46:02.711Z,3.78
2023-06-30T23:48:30.293Z,4.53
2023-06-30T23:50:57.864Z,5.25
2023-06-30T23:53:25.452Z,3.33
2023-06-30T23:55:53.056Z,3.33
2023-06-30T23:58:20.702Z,3.45
